Time;durP1;ratioP1;P1;durP2;ratioP2;P2;SDS_P1;SDS_P2;PMS_P1;PMS_P2;Temp;Humidity;BMP_temperature;BMP_pressure;BME280_temperature;BME280_humidity;BME280_pressure;Samples;Min_cycle;Max_cycle;Signal;HPM_P1;HPM_P2
2023/06/07 00:00:34;;;;;;;4.7;4.2;;;;;;;13.61;83.02148;938.6305;;;;
2023/06/07 00:03:00;;;;;;;5.6;4.4;;;;;;;13.59;83.17773;938.6322;;;;
2023/06/07 00:05:25;;;;;;;4.8;3.9;;;;;;;13.44;83.64453;938.5795;;;;
2023/06/07 00:07:54;;;;;;;4.9;3.7;;;;;;;13.38;84.08203;938.5201;;;;
2023/06/07 00:10:18;;;;;;;6.2;4.2;;;;;;;13.38;84.10352;938.5425;;;;
2023/06/07 00:12:45;;;;;;;6;4.2;;;;;;;13.45;83.58887;938.5323;;;;
2023/06/07 00:15:10;;;;;;;5;4.2;;;;;;;13.37;83.46973;938.5625;;;;
2023/06/07 00:17:41;;;;;;;5.3;4.2;;;;;;;13.32;83.97754;938.5626;;;;
2023/06/07 00:20:08;;;;;;;5.8;4;;;;;;;13.33;83.73828;938.5058;;;;
2023/06/07 00:22:33;;;;;;;5;4.4;;;;;;;13.31;83.75586;938.5642;;;;
2023/06/07 00:24:56;;;;;;;4.3;3.9;;;;;;;13.32;83.73633;938.4954;;;;
2023/06/07 00:27:21;;;;;;;6.5;4.1;;;;;;;13.37;83.60742;938.5433;;;;
2023/06/07 00:29:46;;;;;;;4.5;3.9;;;;;;;13.35;83.42969;938.5322;;;;
2023/06/07 00:32:15;;;;;;;4.2;3.8;;;;;;;13.33;83.58887;938.525;;;;
2023/06/07 00:34:41;;;;;;;5.7;4.3;;;;;;;13.24;83.78809;938.5258;;;;
2023/06/07 00:37:09;;;;;;;7;4.7;;;;;;;13.11;84.625;938.4621;;;;
2023/06/07 00:39:34;;;;;;;4.5;4.1;;;;;;;13.08;84.72363;938.5276;;;;
2023/06/07 00:42:01;;;;;;;5.6;4.2;;;;;;;13.03;85.16016;938.5029;;;;
2023/06/07 00:44:26;;;;;;;6.3;4;;;;;;;12.93;85.60059;938.5425;;;;
2023/06/07 00:46:55;;;;;;;5.1;3.8;;;;;;;12.93;85.40527;938.5497;;;;
2023/06/07 00:49:21;;;;;;;4.8;4.3;;;;;;;12.88;85.4541;938.4905;;;;
2023/06/07 00:51:47;;;;;;;6.6;4.2;;;;;;;12.87;85.6123;938.4561;;;;
2023/06/07 00:54:12;;;;;;;6.2;4.3;;;;;;;12.88;85.73926;938.4793;;;;
2023/06/07 00:56:37;;;;;;;4.8;4.3;;;;;;;12.92;85.71387;938.4235;;;;
2023/06/07 00:59:02;;;;;;;5.3;4;;;;;;;12.88;85.75195;938.3706;;;;
2023/06/07 01:01:33;;;;;;;5;4.4;;;;;;;12.85;85.96484;938.3706;;;;
2023/06/07 01:03:55;;;;;;;4.3;3.9;;;;;;;12.79;85.90625;938.308;;;;
2023/06/07 01:06:22;;;;;;;5.3;3.9;;;;;;;12.81;85.89844;938.3103;;;;
2023/06/07 01:08:51;;;;;;;4.8;4.3;;;;;;;12.89;85.37305;938.3131;;;;
2023/06/07 01:11:16;;;;;;;4.2;3.8;;;;;;;13;84.77637;938.2947;;;;
2023/06/07 01:13:43;;;;;;;4.8;4.3;;;;;;;13;84.53711;938.2996;;;;
2023/06/07 01:16:08;;;;;;;5;4;;;;;;;;;;;;;
2023/06/07 01:18:33;;;;;;;5.8;4;;;;;;;;;;;;;
2023/06/07 01:20:59;;;;;;;4.6;4.2;;;;;;;;;;;;;
2023/06/07 01:23:28;;;;;;;5.3;4;;;;;;;;;;;;;
2023/06/07 01:25:49;;;;;;;4.8;4.2;;;;;;;;;;;;;
2023/06/07 01:28:14;;;;;;;5.4;4.3;;;;;;;;;;;;;
2023/06/07 01:30:40;;;;;;;5.8;4.3;;;;;;;;;;;;;
2023/06/07 01:33:04;;;;;;;4.6;4.1;;;;;;;;;;;;;
2023/06/07 01:35:30;;;;;;;4.7;4.2;;;;;;;;;;;;;
2023/06/07 01:37:55;;;;;;;5.4;4.1;;;;;;;;;;;;;
2023/06/07 01:40:20;;;;;;;4.3;3.9;;;;;;;;;;;;;
2023/06/07 01:42:47;;;;;;;4.5;4.1;;;;;;;;;;;;;
2023/06/07 01:45:16;;;;;;;4.8;4.2;;;;;;;;;;;;;
2023/06/07 01:47:42;;;;;;;4.9;4.4;;;;;;;;;;;;;
2023/06/07 01:50:08;;;;;;;5;4.5;;;;;;;;;;;;;
2023/06/07 01:52:34;;;;;;;5;4.3;;;;;;;;;;;;;
2023/06/07 01:54:59;;;;;;;6.1;4.7;;;;;;;;;;;;;
2023/06/07 01:57:24;;;;;;;5.5;4.2;;;;;;;;;;;;;
2023/06/07 01:59:49;;;;;;;5.6;5;;;;;;;;;;;;;
2023/06/07 02:02:15;;;;;;;6.3;4.6;;;;;;;;;;;;;
2023/06/07 02:04:40;;;;;;;6.7;4.4;;;;;;;;;;;;;
2023/06/07 02:07:06;;;;;;;6.2;4.5;;;;;;;;;;;;;
2023/06/07 02:09:31;;;;;;;6.1;3.9;;;;;;;;;;;;;
2023/06/07 02:11:56;;;;;;;4.9;4.4;;;;;;;;;;;;;
2023/06/07 02:14:21;;;;;;;4.8;4.3;;;;;;;;;;;;;
2023/06/07 02:16:46;;;;;;;5.8;4.6;;;;;;;;;;;;;
2023/06/07 02:19:13;;;;;;;5.1;4.5;;;;;;;;;;;;;
2023/06/07 02:21:39;;;;;;;5.4;4.3;;;;;;;;;;;;;
2023/06/07 02:24:05;;;;;;;5.3;4.6;;;;;;;;;;;;;
2023/06/07 02:26:30;;;;;;;5.7;4.4;;;;;;;;;;;;;
2023/06/07 02:28:55;;;;;;;6.1;4.8;;;;;;;;;;;;;
2023/06/07 02:33:45;;;;;;;5.9;4.5;;;;;;;;;;;;;
2023/06/07 02:36:12;;;;;;;4.8;4.3;;;;;;;;;;;;;
2023/06/07 02:38:37;;;;;;;4.6;4.2;;;;;;;;;;;;;
2023/06/07 02:41:02;;;;;;;5.6;4.7;;;;;;;;;;;;;
2023/06/07 02:43:27;;;;;;;9;5.1;;;;;;;;;;;;;
2023/06/07 02:45:52;;;;;;;5.9;4.1;;;;;;;;;;;;;
2023/06/07 02:48:18;;;;;;;5;4.3;;;;;;;;;;;;;
2023/06/07 02:50:42;;;;;;;5.6;4.3;;;;;;;;;;;;;
2023/06/07 02:53:07;;;;;;;7.1;4.4;;;;;;;;;;;;;
2023/06/07 02:55:32;;;;;;;6.3;4.6;;;;;;;;;;;;;
2023/06/07 02:58:02;;;;;;;6.2;4.4;;;;;;;;;;;;;
2023/06/07 03:00:27;;;;;;;7.4;4.5;;;;;;;;;;;;;
2023/06/07 03:02:55;;;;;;;5.5;5;;;;;;;;;;;;;
2023/06/07 03:05:20;;;;;;;6.4;5.6;;;;;;;;;;;;;
2023/06/07 03:08:01;;;;;;;12.1;6.1;;;;;;;;;;;;;
2023/06/07 03:10:26;;;;;;;7.2;5;;;;;;;;;;;;;
2023/06/07 03:12:51;;;;;;;6.2;5.1;;;;;;;;;;;;;
2023/06/07 03:15:16;;;;;;;6.3;4.7;;;;;;;;;;;;;
2023/06/07 03:17:44;;;;;;;5.9;5;;;;;;;;;;;;;
2023/06/07 03:20:09;;;;;;;5.8;4.6;;;;;;;;;;;;;
2023/06/07 03:22:36;;;;;;;6.8;4.7;;;;;;;;;;;;;
2023/06/07 03:25:02;;;;;;;8.3;4.6;;;;;;;;;;;;;
2023/06/07 03:27:27;;;;;;;6.6;4.8;;;;;;;;;;;;;
2023/06/07 03:29:50;;;;;;;6.3;4.6;;;;;;;;;;;;;
2023/06/07 03:32:16;;;;;;;6.4;5;;;;;;;;;;;;;
2023/06/07 03:34:41;;;;;;;6.3;4.8;;;;;;;;;;;;;
2023/06/07 03:37:08;;;;;;;9.4;5.2;;;;;;;;;;;;;
2023/06/07 03:39:33;;;;;;;7.6;5.1;;;;;;;;;;;;;
2023/06/07 03:42:00;;;;;;;5.2;4.7;;;;;;;;;;;;;
2023/06/07 03:44:25;;;;;;;6;4.8;;;;;;;;;;;;;
2023/06/07 03:46:50;;;;;;;5.2;4.4;;;;;;;;;;;;;
2023/06/07 03:49:15;;;;;;;7.4;4.8;;;;;;;;;;;;;
2023/06/07 03:51:43;;;;;;;5.3;4.7;;;;;;;;;;;;;
2023/06/07 03:54:06;;;;;;;7.5;5.1;;;;;;;;;;;;;
2023/06/07 03:56:33;;;;;;;7.8;5.3;;;;;;;;;;;;;
2023/06/07 03:59:01;;;;;;;6.6;4.8;;;;;;;;;;;;;
2023/06/07 04:02:37;;;;;;;5.4;4.5;;;;;;;11.78;87.93945;938.4972;;;;
2023/06/07 04:05:10;;;;;;;7.1;5.2;;;;;;;11.84;87.67773;938.4495;;;;
2023/06/07 04:07:41;;;;;;;8.4;5.2;;;;;;;11.66;88.54395;938.5061;;;;
2023/06/07 04:10:16;;;;;;;10.4;5.5;;;;;;;11.54;89.74414;938.4494;;;;
2023/06/07 04:12:48;;;;;;;7.1;4.9;;;;;;;11.57;89.55664;938.5101;;;;
2023/06/07 04:15:20;;;;;;;7.1;4.8;;;;;;;11.59;89.2627;938.5485;;;;
2023/06/07 04:17:48;;;;;;;7.3;4.8;;;;;;;11.64;89.12402;938.5187;;;;
2023/06/07 04:20:14;;;;;;;8.5;5.1;;;;;;;11.72;88.6709;938.5272;;;;
2023/06/07 04:22:45;;;;;;;8.7;4.9;;;;;;;11.73;88.53711;938.5943;;;;
2023/06/07 04:25:21;;;;;;;7.1;5.1;;;;;;;11.81;88.24316;938.5854;;;;
2023/06/07 04:27:48;;;;;;;6;5.2;;;;;;;11.78;88.27148;938.5446;;;;
2023/06/07 04:30:15;;;;;;;6.6;4.6;;;;;;;11.87;88.10645;938.543;;;;
2023/06/07 04:32:39;;;;;;;6.3;4.9;;;;;;;11.76;88.46289;938.5402;;;;
2023/06/07 04:35:07;;;;;;;9.5;5.2;;;;;;;11.5;89.91992;938.548;;;;
2023/06/07 04:37:33;;;;;;;5.9;5.2;;;;;;;11.48;90.66895;938.6021;;;;
2023/06/07 04:40:00;;;;;;;8.6;5.1;;;;;;;11.54;90.49023;938.6089;;;;
2023/06/07 04:42:27;;;;;;;7.1;4.7;;;;;;;11.64;90.07324;938.5475;;;;
2023/06/07 04:44:55;;;;;;;5.4;4.9;;;;;;;11.71;89.96289;938.5535;;;;
2023/06/07 04:47:20;;;;;;;5.6;4.8;;;;;;;11.73;89.91113;938.6102;;;;
2023/06/07 04:49:51;;;;;;;6;5.1;;;;;;;11.72;90.20508;938.579;;;;
2023/06/07 04:52:13;;;;;;;5.2;4.4;;;;;;;11.6;90.94727;938.6227;;;;
2023/06/07 04:54:41;;;;;;;6.3;5.1;;;;;;;11.76;90.625;938.5298;;;;
2023/06/07 04:57:06;;;;;;;6.5;4.5;;;;;;;11.86;89.92578;938.6067;;;;
2023/06/07 04:59:42;;;;;;;5.7;4.8;;;;;;;12.04;89.18457;938.5879;;;;
2023/06/07 05:02:00;;;;;;;7.1;5.2;;;;;;;12.37;89.25098;938.5574;;;;
2023/06/07 05:04:25;;;;;;;5.2;4.2;;;;;;;13.37;84.42383;938.481;;;;
2023/06/07 05:06:58;;;;;;;5.8;4.3;;;;;;;14.19;79.25195;938.532;;;;
2023/06/07 05:09:17;;;;;;;7.1;4.2;;;;;;;14.73;77.05566;938.5184;;;;
2023/06/07 05:11:45;;;;;;;5.1;3.7;;;;;;;14.76;76.10352;938.4878;;;;
2023/06/07 05:14:10;;;;;;;4.7;3.7;;;;;;;15.57;72.87305;938.4705;;;;
2023/06/07 05:16:38;;;;;;;4.2;3.4;;;;;;;17.07;68.01074;938.4365;;;;
2023/06/07 05:19:03;;;;;;;5.9;3.8;;;;;;;18.47;63.01855;938.4427;;;;
2023/06/07 05:21:30;;;;;;;5.9;3.8;;;;;;;18.88;60.32031;938.4066;;;;
2023/06/07 05:23:55;;;;;;;3.7;3.2;;;;;;;19.1;60.33691;938.4125;;;;
2023/06/07 05:26:22;;;;;;;8.2;3.4;;;;;;;19.83;59.25977;938.4072;;;;
2023/06/07 05:28:46;;;;;;;4;3.2;;;;;;;20.18;56.82031;938.3837;;;;
2023/06/07 05:31:11;;;;;;;4.7;3.3;;;;;;;20.11;56.91602;938.3881;;;;
2023/06/07 05:33:36;;;;;;;4.5;2.9;;;;;;;20.6;56.20898;938.3912;;;;
2023/06/07 05:36:05;;;;;;;4;3.4;;;;;;;20.61;55.49609;938.4146;;;;
2023/06/07 05:38:30;;;;;;;4.7;3.4;;;;;;;20.71;56.10547;938.424;;;;
2023/06/07 05:40:59;;;;;;;4.5;3.3;;;;;;;20.77;54.64063;938.3825;;;;
2023/06/07 05:43:29;;;;;;;3.9;3.2;;;;;;;21.54;52.80371;938.3261;;;;
2023/06/07 05:45:54;;;;;;;4.5;2.8;;;;;;;21.65;51.23535;938.3543;;;;
2023/06/07 05:48:20;;;;;;;5.2;3;;;;;;;20.53;53.40723;938.319;;;;
2023/06/07 05:50:45;;;;;;;3.8;2.7;;;;;;;19.88;54.56543;938.3211;;;;
2023/06/07 05:54:17;;;;;;;3.8;3.3;;;;;;;20.29;56.33203;938.2815;;;;
2023/06/07 05:56:41;;;;;;;3.7;3.1;;;;;;;22.96;49.26074;938.2475;;;;
2023/06/07 05:59:07;;;;;;;4.3;3.2;;;;;;;22.06;49.16113;938.2992;;;;
2023/06/07 06:01:34;;;;;;;3.8;3.1;;;;;;;21.98;48.74316;938.2169;;;;
2023/06/07 06:04:01;;;;;;;2.9;2.6;;;;;;;21.8;49.74219;938.2317;;;;
2023/06/07 06:06:26;;;;;;;4.7;3.2;;;;;;;22.66;47.94824;938.2161;;;;
2023/06/07 06:08:55;;;;;;;4.6;2.9;;;;;;;23.5;45.66406;938.2375;;;;
2023/06/07 06:11:20;;;;;;;3;2.6;;;;;;;24.65;44.21387;938.2352;;;;
2023/06/07 06:13:48;;;;;;;6.3;2.7;;;;;;;25.97;41.41113;938.1965;;;;
2023/06/07 06:16:12;;;;;;;3.3;2.8;;;;;;;26.01;41.25;938.1873;;;;
2023/06/07 06:18:39;;;;;;;4.1;3;;;;;;;26.96;38.45703;938.2023;;;;
2023/06/07 06:21:05;;;;;;;5.2;2.9;;;;;;;27.45;38.30859;938.1297;;;;
2023/06/07 06:23:34;;;;;;;5.6;2.8;;;;;;;26.48;40.03809;938.1735;;;;
2023/06/07 06:26:04;;;;;;;4.3;2.6;;;;;;;26.65;40.00586;938.1376;;;;
2023/06/07 06:32:00;;;;;;;3.2;2.5;;;;;;;26.79;39.47266;938.0639;;;;
2023/06/07 06:34:25;;;;;;;3.3;2.7;;;;;;;26.67;39.99609;938.0842;;;;
2023/06/07 06:36:57;;;;;;;3.5;2.7;;;;;;;27.33;38.54785;938.0316;;;;
2023/06/07 06:39:27;;;;;;;4;2.9;;;;;;;25.58;42.11914;938.0269;;;;
2023/06/07 06:41:57;;;;;;;3.1;2.5;;;;;;;26.84;39.85645;938.0585;;;;
2023/06/07 06:44:23;;;;;;;3.1;2.8;;;;;;;27.16;39.94434;938.0311;;;;
2023/06/07 06:46:54;;;;;;;4.5;2.6;;;;;;;27.69;37.77148;938.0176;;;;
2023/06/07 06:49:27;;;;;;;5.1;2.7;;;;;;;28.45;37.39551;937.9924;;;;
2023/06/07 06:51:52;;;;;;;3.1;2.7;;;;;;;28.95;35.15137;937.9606;;;;
2023/06/07 06:54:22;;;;;;;3.7;2.6;;;;;;;27.36;36.01172;937.9742;;;;
2023/06/07 06:56:49;;;;;;;5;2.8;;;;;;;28.27;36.5127;937.9409;;;;
2023/06/07 06:59:19;;;;;;;5;3;;;;;;;27.8;36.37988;937.9754;;;;
2023/06/07 07:01:45;;;;;;;5.4;3;;;;;;;24.16;43.09277;938.046;;;;
2023/06/07 07:04:12;;;;;;;3;2.7;;;;;;;24.73;43.36035;937.9906;;;;
2023/06/07 07:06:36;;;;;;;3;2.7;;;;;;;26.59;40.58008;937.9167;;;;
2023/06/07 07:09:03;;;;;;;4.4;2.7;;;;;;;26.97;38.31641;937.9611;;;;
2023/06/07 07:11:28;;;;;;;3.1;2.6;;;;;;;27.6;38.67773;937.9567;;;;
2023/06/07 07:13:57;;;;;;;3.8;2.8;;;;;;;29.31;34.47656;937.923;;;;
2023/06/07 07:16:22;;;;;;;4.1;2.6;;;;;;;29.77;33.41504;937.9381;;;;
2023/06/07 07:18:50;;;;;;;3.7;2.7;;;;;;;30.25;32.79395;937.9688;;;;
2023/06/07 07:21:14;;;;;;;4.4;2.5;;;;;;;30.05;35.4043;937.9208;;;;
2023/06/07 07:23:46;;;;;;;4.7;2.6;;;;;;;28.61;35.69629;937.9136;;;;
2023/06/07 07:26:10;;;;;;;4.5;2.9;;;;;;;28.87;35.76367;937.93;;;;
2023/06/07 07:28:36;;;;;;;3.7;3.1;;;;;;;29.11;35.52051;937.8727;;;;
2023/06/07 07:31:01;;;;;;;3.3;3;;;;;;;28;36.84766;937.8855;;;;
2023/06/07 07:33:30;;;;;;;3.8;2.8;;;;;;;28.65;36.35352;937.842;;;;
2023/06/07 07:35:55;;;;;;;3.5;3;;;;;;;28.01;37.63184;937.8561;;;;
2023/06/07 07:38:26;;;;;;;3.7;3.1;;;;;;;28.17;39.54688;937.8619;;;;
2023/06/07 07:40:51;;;;;;;5.9;3.3;;;;;;;27.7;38.72266;937.8019;;;;
2023/06/07 07:43:19;;;;;;;4.4;2.8;;;;;;;27.06;40.55176;937.8543;;;;
2023/06/07 07:45:44;;;;;;;3.4;3;;;;;;;28.93;37.79297;937.8461;;;;
2023/06/07 07:48:09;;;;;;;5.6;3.3;;;;;;;29.17;35.10938;937.7601;;;;
2023/06/07 07:50:40;;;;;;;3.6;2.9;;;;;;;28.47;37.12402;937.7791;;;;
2023/06/07 07:53:02;;;;;;;3.2;2.8;;;;;;;27.81;39.06445;937.817;;;;
2023/06/07 07:55:33;;;;;;;2.9;2.6;;;;;;;29.98;34.01465;937.7876;;;;
2023/06/07 07:58:00;;;;;;;4.2;2.7;;;;;;;28.32;36.13574;937.8139;;;;
2023/06/07 08:00:25;;;;;;;5.8;2.7;;;;;;;26.02;41.77051;937.8156;;;;
2023/06/07 08:02:58;;;;;;;2.9;2.4;;;;;;;25.45;43.4541;937.774;;;;
2023/06/07 08:05:26;;;;;;;3.7;2.6;;;;;;;28.6;37.95605;937.7383;;;;
2023/06/07 08:07:56;;;;;;;4.4;2.4;;;;;;;25.92;43.16895;937.6997;;;;
2023/06/07 08:10:20;;;;;;;2.8;2.6;;;;;;;26.05;42.57715;937.7262;;;;
2023/06/07 08:12:47;;;;;;;5.1;2.8;;;;;;;25.52;44.9375;937.6447;;;;
2023/06/07 08:15:12;;;;;;;3.9;2.7;;;;;;;26.2;46.12988;937.688;;;;
2023/06/07 08:17:41;;;;;;;4.4;2.8;;;;;;;26.8;43.11035;937.6738;;;;
2023/06/07 08:20:14;;;;;;;5;3;;;;;;;25.1;45.66211;937.7495;;;;
2023/06/07 08:22:42;;;;;;;2.9;2.4;;;;;;;26.47;42.32129;937.6448;;;;
2023/06/07 08:25:08;;;;;;;2.9;2.5;;;;;;;27.52;42.25488;937.6846;;;;
2023/06/07 08:27:32;;;;;;;2.8;2.5;;;;;;;27.59;42.5459;937.634;;;;
2023/06/07 08:30:00;;;;;;;3;2.4;;;;;;;27.05;41.20313;937.6544;;;;
2023/06/07 08:32:25;;;;;;;3.8;2.2;;;;;;;28.03;38.7627;937.6398;;;;
2023/06/07 08:34:50;;;;;;;3.9;2.8;;;;;;;28.29;38.77246;937.6183;;;;
2023/06/07 08:37:20;;;;;;;5.9;3.1;;;;;;;25.74;45.64453;937.6473;;;;
2023/06/07 08:39:46;;;;;;;3.3;2.5;;;;;;;26.25;44.06348;937.6564;;;;
2023/06/07 08:42:10;;;;;;;4.3;2.6;;;;;;;27.85;39.55469;937.584;;;;
2023/06/07 08:44:40;;;;;;;8.3;3;;;;;;;26.09;43.56348;937.6075;;;;
2023/06/07 08:47:06;;;;;;;3.3;2.8;;;;;;;26.98;42.2041;937.5471;;;;
2023/06/07 08:49:32;;;;;;;2.5;2.3;;;;;;;27.23;40.80371;937.633;;;;
2023/06/07 08:52:00;;;;;;;4.1;2.3;;;;;;;27.47;41.81152;937.5488;;;;
2023/06/07 08:54:25;;;;;;;3.2;2.3;;;;;;;28;38.73633;937.5793;;;;
2023/06/07 08:56:55;;;;;;;2.4;2.2;;;;;;;27.68;41.28418;937.6339;;;;
2023/06/07 08:59:20;;;;;;;3.3;2.5;;;;;;;28.74;38.37207;937.615;;;;
2023/06/07 09:01:45;;;;;;;5.2;2.7;;;;;;;28.11;40.63477;937.5959;;;;
2023/06/07 09:04:12;;;;;;;3.1;2.7;;;;;;;28.16;40.47266;937.582;;;;
2023/06/07 09:06:37;;;;;;;4.5;2.8;;;;;;;28.2;38.50391;937.5904;;;;
2023/06/07 09:09:07;;;;;;;3.8;2.8;;;;;;;27.9;41.0791;937.5837;;;;
2023/06/07 09:11:32;;;;;;;3.3;2.7;;;;;;;27.29;43.11133;937.6093;;;;
2023/06/07 09:14:00;;;;;;;3.4;2.5;;;;;;;27.38;40.30762;937.5822;;;;
2023/06/07 09:16:26;;;;;;;2.7;2.5;;;;;;;25.62;43.88379;937.573;;;;
2023/06/07 09:18:53;;;;;;;3.5;2.5;;;;;;;25.98;42.05078;937.6135;;;;
2023/06/07 09:21:16;;;;;;;3.9;2.5;;;;;;;27.13;40.7959;937.592;;;;
2023/06/07 09:23:41;;;;;;;4.2;2.7;;;;;;;25.77;44.69043;937.592;;;;
2023/06/07 09:26:07;;;;;;;3.7;2.6;;;;;;;27.18;41.79688;937.5823;;;;
2023/06/07 09:28:38;;;;;;;3;2.7;;;;;;;26.44;42.17773;937.5825;;;;
2023/06/07 09:31:06;;;;;;;4.2;2.6;;;;;;;26.7;41.57422;937.5107;;;;
2023/06/07 09:33:33;;;;;;;3.7;2.5;;;;;;;25.55;45.74414;937.4819;;;;
2023/06/07 09:36:00;;;;;;;3.4;2.5;;;;;;;26.18;44.16309;937.4542;;;;
2023/06/07 09:38:25;;;;;;;3.6;2.8;;;;;;;26.46;42.56836;937.4043;;;;
2023/06/07 09:40:53;;;;;;;3.9;2.4;;;;;;;26.44;43.88184;937.4542;;;;
2023/06/07 09:43:18;;;;;;;5.2;2.9;;;;;;;25.28;47.17969;937.4094;;;;
2023/06/07 09:45:44;;;;;;;4.7;2.7;;;;;;;24.79;46.69238;937.4161;;;;
2023/06/07 09:48:12;;;;;;;4.9;2.5;;;;;;;24.67;47.10449;937.355;;;;
2023/06/07 09:50:37;;;;;;;4.6;2.6;;;;;;;24.94;48.27734;937.3766;;;;
2023/06/07 09:53:05;;;;;;;3.1;2.7;;;;;;;25.67;46.34668;937.3652;;;;
2023/06/07 09:55:31;;;;;;;2.7;2.5;;;;;;;25.28;46.11719;937.3459;;;;
2023/06/07 09:57:57;;;;;;;4.3;2.8;;;;;;;25.12;46.53809;937.3807;;;;
2023/06/07 10:00:22;;;;;;;5.1;2.9;;;;;;;25.19;46.63965;937.3719;;;;
2023/06/07 10:02:51;;;;;;;3.6;2.8;;;;;;;25.65;42.68164;937.2985;;;;
2023/06/07 10:05:17;;;;;;;2.6;2.3;;;;;;;25.05;45.61035;937.3036;;;;
2023/06/07 10:07:41;;;;;;;4.3;3;;;;;;;25.12;43.51563;937.3183;;;;
2023/06/07 10:10:07;;;;;;;3.7;3;;;;;;;24.82;45.51563;937.2714;;;;
2023/06/07 10:12:31;;;;;;;5.3;2.6;;;;;;;24.54;46.72461;937.2863;;;;
2023/06/07 10:14:58;;;;;;;6.6;2.7;;;;;;;24.07;46.35645;937.2631;;;;
2023/06/07 10:17:24;;;;;;;4.6;2.8;;;;;;;23.99;47.76172;937.1855;;;;
2023/06/07 10:19:57;;;;;;;5.6;2.7;;;;;;;23.7;47.87207;937.2629;;;;
2023/06/07 10:22:19;;;;;;;3.8;2.7;;;;;;;24.19;46.14648;937.1903;;;;
2023/06/07 10:24:45;;;;;;;4;2.8;;;;;;;24.12;46.98633;937.2267;;;;
2023/06/07 10:27:13;;;;;;;4.5;3.2;;;;;;;24.77;44.49707;937.2108;;;;
2023/06/07 10:29:38;;;;;;;4;2.8;;;;;;;24.99;46.26465;937.2;;;;
2023/06/07 10:32:05;;;;;;;3.6;2.6;;;;;;;23.71;47.47363;937.1854;;;;
2023/06/07 10:34:30;;;;;;;5.4;3.1;;;;;;;24.1;47.60938;937.1152;;;;
2023/06/07 10:37:02;;;;;;;3.9;2.5;;;;;;;24.39;47.78223;937.1199;;;;
2023/06/07 10:39:33;;;;;;;3.7;2.9;;;;;;;24.79;44.22656;937.1394;;;;
2023/06/07 10:41:58;;;;;;;3.7;2.8;;;;;;;24.98;44.55273;937.0698;;;;
2023/06/07 10:44:31;;;;;;;3.8;2.7;;;;;;;25.08;45.43652;937.0469;;;;
2023/06/07 10:46:57;;;;;;;3.7;2.6;;;;;;;24.71;44.84473;937.0547;;;;
2023/06/07 10:49:23;;;;;;;4.4;3;;;;;;;25.05;44.63086;937.0878;;;;
2023/06/07 10:51:55;;;;;;;3.8;2.8;;;;;;;25.28;42.74121;937.0801;;;;
2023/06/07 10:54:21;;;;;;;4;2.8;;;;;;;24.92;43.2832;937.0466;;;;
2023/06/07 10:56:45;;;;;;;4.8;2.7;;;;;;;24.84;47.34668;937.0302;;;;
2023/06/07 10:59:10;;;;;;;3.6;2.8;;;;;;;24.83;46.47266;937.0437;;;;
2023/06/07 11:01:37;;;;;;;4.7;3.2;;;;;;;24.45;44.8291;936.9955;;;;
2023/06/07 11:04:03;;;;;;;6.1;2.8;;;;;;;24.54;46.93652;936.96;;;;
2023/06/07 11:06:28;;;;;;;4;3;;;;;;;24.74;44.18652;937.0008;;;;
2023/06/07 11:08:59;;;;;;;5.1;2.9;;;;;;;24.56;46.77344;937.0993;;;;
2023/06/07 11:11:25;;;;;;;4.3;2.8;;;;;;;24.94;43.61621;937.0128;;;;
2023/06/07 11:13:49;;;;;;;3.9;2.6;;;;;;;24.42;46.37109;936.996;;;;
2023/06/07 11:16:14;;;;;;;4.8;2.9;;;;;;;25.01;44.66211;937.0648;;;;
2023/06/07 11:18:39;;;;;;;3;2.7;;;;;;;25.02;45.70117;937.027;;;;
2023/06/07 11:21:04;;;;;;;4.2;2.9;;;;;;;24.98;46.74707;937.0538;;;;
2023/06/07 11:23:31;;;;;;;3.9;3.3;;;;;;;24.99;44.56543;936.9182;;;;
2023/06/07 11:25:56;;;;;;;5.3;3.1;;;;;;;25.09;44.7041;936.9727;;;;
2023/06/07 11:28:21;;;;;;;4.8;2.9;;;;;;;24.4;47.68848;936.9311;;;;
2023/06/07 11:30:46;;;;;;;4.1;3;;;;;;;24.59;45.98828;936.9511;;;;
2023/06/07 11:33:15;;;;;;;3.3;3;;;;;;;24.94;45.32813;936.9603;;;;
2023/06/07 11:35:43;;;;;;;3.9;3;;;;;;;24.97;44.64551;936.8962;;;;
2023/06/07 11:38:12;;;;;;;4.7;3.2;;;;;;;24.3;47.91309;936.8945;;;;
2023/06/07 11:40:40;;;;;;;5;2.8;;;;;;;24.73;46.63965;936.8616;;;;
2023/06/07 11:43:05;;;;;;;3.6;2.8;;;;;;;24.99;47.42188;936.8383;;;;
2023/06/07 11:45:38;;;;;;;6.4;3.4;;;;;;;25.09;44.28027;936.8437;;;;
2023/06/07 11:48:02;;;;;;;6.5;2.9;;;;;;;24.49;48.92383;936.837;;;;
2023/06/07 11:50:29;;;;;;;7.7;4.1;;;;;;;25.06;43.15625;936.8331;;;;
2023/06/07 11:52:55;;;;;;;5.8;4.1;;;;;;;25.33;42.76953;936.8393;;;;
2023/06/07 11:55:23;;;;;;;3.4;2.7;;;;;;;25.77;41.27441;936.8382;;;;
2023/06/07 11:57:51;;;;;;;3.7;3.1;;;;;;;25.79;43.01465;936.7957;;;;
2023/06/07 12:00:14;;;;;;;5.4;3.2;;;;;;;25.58;41.19824;936.7853;;;;
2023/06/07 12:02:41;;;;;;;4.4;3;;;;;;;25.67;42.54102;936.7928;;;;
2023/06/07 12:05:12;;;;;;;4.7;2.8;;;;;;;25.98;41.27051;936.7559;;;;
2023/06/07 12:07:38;;;;;;;3.9;2.7;;;;;;;26.27;40.62305;936.7352;;;;
2023/06/07 12:10:09;;;;;;;3.7;2.6;;;;;;;25.74;41.09473;936.661;;;;
2023/06/07 12:12:34;;;;;;;3.2;2.8;;;;;;;25.96;42.91211;936.6462;;;;
2023/06/07 12:15:03;;;;;;;6.5;2.7;;;;;;;25.16;43.56738;936.5402;;;;
2023/06/07 12:17:29;;;;;;;5;3.1;;;;;;;24.91;44.61621;936.5945;;;;
2023/06/07 12:19:56;;;;;;;4.2;2.6;;;;;;;25.11;43.21973;936.6089;;;;
2023/06/07 12:22:24;;;;;;;3.9;2.8;;;;;;;25.35;41.83789;936.621;;;;
2023/06/07 12:24:49;;;;;;;4.3;3.2;;;;;;;25.25;43.77734;936.5963;;;;
2023/06/07 12:27:16;;;;;;;6;3.1;;;;;;;25.03;46.24512;936.5605;;;;
2023/06/07 12:29:42;;;;;;;4.4;3.1;;;;;;;25.38;46.1875;936.5736;;;;
2023/06/07 12:32:09;;;;;;;5.8;2.8;;;;;;;25.15;45.78613;936.5603;;;;
2023/06/07 12:34:35;;;;;;;4.3;3.1;;;;;;;24.93;42.99023;936.5167;;;;
2023/06/07 12:37:04;;;;;;;4;2.9;;;;;;;24.91;46.74023;936.5105;;;;
2023/06/07 12:39:33;;;;;;;3.4;2.9;;;;;;;25.3;43.16797;936.4877;;;;
2023/06/07 12:41:59;;;;;;;4.5;2.9;;;;;;;25;42.0293;936.4451;;;;
2023/06/07 12:44:24;;;;;;;3.6;3.2;;;;;;;24.71;47.0625;936.4472;;;;
2023/06/07 12:46:58;;;;;;;4.1;2.9;;;;;;;25.06;42.83691;936.4917;;;;
2023/06/07 12:49:24;;;;;;;4.6;3;;;;;;;25.53;40.56641;936.4255;;;;
2023/06/07 12:51:49;;;;;;;4.9;3;;;;;;;25.74;39.46387;936.3334;;;;
2023/06/07 12:54:19;;;;;;;4.8;3.1;;;;;;;25.52;40.67285;936.4224;;;;
2023/06/07 12:56:45;;;;;;;3.7;2.8;;;;;;;25.66;40.54395;936.3664;;;;
2023/06/07 12:59:11;;;;;;;4.8;2.8;;;;;;;25.34;43.2666;936.3334;;;;
2023/06/07 13:01:36;;;;;;;5.5;3.1;;;;;;;25.44;42.61426;936.3245;;;;
2023/06/07 13:04:03;;;;;;;5.1;2.9;;;;;;;25.74;40.57422;936.2508;;;;
2023/06/07 13:06:28;;;;;;;3.2;2.8;;;;;;;25.87;41.89844;936.3022;;;;
2023/06/07 13:08:53;;;;;;;4.3;2.9;;;;;;;26.14;39.51074;936.2447;;;;
2023/06/07 13:11:22;;;;;;;3.9;2.8;;;;;;;25.79;41.51367;936.2899;;;;
2023/06/07 13:13:47;;;;;;;4;2.7;;;;;;;25.01;44.75684;936.2881;;;;
2023/06/07 13:16:14;;;;;;;5;3.1;;;;;;;25.07;43.3584;936.2247;;;;
2023/06/07 13:18:40;;;;;;;3.1;2.8;;;;;;;25.08;44.11426;936.2626;;;;
2023/06/07 13:21:07;;;;;;;4.1;2.7;;;;;;;25.22;42.51172;936.2128;;;;
2023/06/07 13:23:33;;;;;;;5.9;2.9;;;;;;;25.32;44.83398;936.187;;;;
2023/06/07 13:26:01;;;;;;;4.3;3.1;;;;;;;25.46;42.67578;936.123;;;;
2023/06/07 13:28:26;;;;;;;3.5;2.9;;;;;;;25.46;43.52539;936.1656;;;;
2023/06/07 13:30:55;;;;;;;3.7;3.4;;;;;;;25.4;42.94043;936.1064;;;;
2023/06/07 13:33:26;;;;;;;4;3;;;;;;;25.13;42.76172;936.0772;;;;
2023/06/07 13:35:51;;;;;;;3.5;3.1;;;;;;;25.39;41.59473;936.0503;;;;
2023/06/07 13:38:16;;;;;;;3.4;2.8;;;;;;;25.08;41.4707;936.0414;;;;
2023/06/07 13:40:44;;;;;;;3.7;2.9;;;;;;;25.12;44.11816;935.9858;;;;
2023/06/07 13:43:09;;;;;;;4.2;2.8;;;;;;;25.26;44.42773;936.048;;;;
2023/06/07 13:45:35;;;;;;;4.4;3;;;;;;;25.11;43.65625;936.0555;;;;
2023/06/07 13:48:00;;;;;;;4.7;3.2;;;;;;;25.07;43.51172;936.0983;;;;
2023/06/07 13:50:25;;;;;;;4.5;3;;;;;;;24.85;44.38574;935.9602;;;;
2023/06/07 13:52:52;;;;;;;3.8;3.3;;;;;;;24.85;44.70508;936.0081;;;;
2023/06/07 13:55:17;;;;;;;4.4;3.1;;;;;;;24.77;44.14258;935.9714;;;;
2023/06/07 13:57:46;;;;;;;4.5;3.2;;;;;;;24.75;43.09082;935.9705;;;;
2023/06/07 14:00:10;;;;;;;3.4;2.9;;;;;;;24.91;42.54004;935.9444;;;;
2023/06/07 14:02:36;;;;;;;3.9;3.2;;;;;;;24.86;43.38477;936.0715;;;;
2023/06/07 14:05:02;;;;;;;3.3;2.8;;;;;;;24.91;40.78223;936.007;;;;
2023/06/07 14:07:27;;;;;;;4;2.8;;;;;;;25.22;41.44824;935.9636;;;;
2023/06/07 14:09:55;;;;;;;4.5;3;;;;;;;25.23;42.11035;935.9601;;;;
2023/06/07 14:12:19;;;;;;;3.7;3.1;;;;;;;25.3;41.04199;935.9216;;;;
2023/06/07 14:14:47;;;;;;;4.4;3;;;;;;;25.15;42.32715;935.8702;;;;
2023/06/07 14:17:12;;;;;;;3.5;3;;;;;;;24.98;42.08594;935.8212;;;;
2023/06/07 14:19:41;;;;;;;6;2.9;;;;;;;24.65;44.93262;935.856;;;;
2023/06/07 14:22:05;;;;;;;3.5;3.1;;;;;;;24.86;41.89844;935.8134;;;;
2023/06/07 14:24:31;;;;;;;6.6;3.4;;;;;;;25.13;42.77344;935.7888;;;;
2023/06/07 14:26:56;;;;;;;4.2;3;;;;;;;24.77;44.93262;935.8242;;;;
2023/06/07 14:29:26;;;;;;;4.5;3;;;;;;;24.76;43.12793;935.8211;;;;
2023/06/07 14:31:51;;;;;;;3.6;3;;;;;;;24.69;43.66309;935.8058;;;;
2023/06/07 14:34:18;;;;;;;3.9;3.2;;;;;;;24.64;43.08105;935.7813;;;;
2023/06/07 14:36:43;;;;;;;3.6;3;;;;;;;24.98;41.67285;935.7291;;;;
2023/06/07 14:39:10;;;;;;;4;3;;;;;;;25.23;42.54688;935.7816;;;;
2023/06/07 14:41:38;;;;;;;6.8;3.1;;;;;;;24.96;42.15527;935.7692;;;;
2023/06/07 14:44:10;;;;;;;5.1;3.2;;;;;;;24.99;40.68262;935.793;;;;
2023/06/07 14:46:39;;;;;;;3.8;3.2;;;;;;;24.98;40.84766;935.7809;;;;
2023/06/07 14:49:04;;;;;;;3.6;3.2;;;;;;;25.07;41.1748;935.7642;;;;
2023/06/07 14:51:35;;;;;;;3.5;3.1;;;;;;;24.38;43.18457;935.7781;;;;
2023/06/07 14:54:02;;;;;;;5.5;3;;;;;;;24.46;42.21484;935.798;;;;
2023/06/07 14:56:28;;;;;;;6.2;3.3;;;;;;;24.45;41.58887;935.8189;;;;
2023/06/07 14:58:57;;;;;;;4.3;3.4;;;;;;;24.45;40.85742;935.7938;;;;
2023/06/07 15:01:24;;;;;;;5.2;3.4;;;;;;;24.52;40.84082;935.8381;;;;
2023/06/07 15:03:47;;;;;;;4.5;3.1;;;;;;;24.56;40.80957;935.8917;;;;
2023/06/07 15:06:17;;;;;;;6.4;3.4;;;;;;;24.46;40.6582;935.8389;;;;
2023/06/07 15:08:42;;;;;;;6.4;3.8;;;;;;;24.44;40.7627;935.8436;;;;
2023/06/07 15:11:07;;;;;;;4.7;3.4;;;;;;;24.49;41.4873;935.8233;;;;
2023/06/07 15:13:35;;;;;;;5.2;3.4;;;;;;;24.41;41.00781;935.7994;;;;
2023/06/07 15:16:00;;;;;;;4.3;3.3;;;;;;;24.49;42.34766;935.8176;;;;
2023/06/07 15:18:31;;;;;;;4.2;3.4;;;;;;;24.31;43.93262;935.8145;;;;
2023/06/07 15:20:56;;;;;;;4.6;3.2;;;;;;;24.61;41.73242;935.8472;;;;